createdAt,value
2018-02-18T00:00:00.175Z,20.63
2018-02-18T00:02:28.489Z,20.10
2018-02-18T00:04:56.892Z,19.40
2018-02-18T00:07:25.259Z,22.40
2018-02-18T00:09:53.550Z,21.90
2018-02-18T00:12:22.903Z,15.40
2018-02-18T00:14:56.697Z,23.43
2018-02-18T00:17:25.006Z,20.87
2018-02-18T00:19:53.328Z,16.77
2018-02-18T00:22:22.599Z,28.37
2018-02-18T00:24:51.070Z,33.67
2018-02-18T00:27:19.457Z,30.60
2018-02-18T00:29:48.573Z,23.83
2018-02-18T00:32:17.071Z,18.83
2018-02-18T00:34:46.193Z,18.40
2018-02-18T00:37:14.598Z,23.73
2018-02-18T00:39:42.966Z,18.93
2018-02-18T00:42:11.443Z,33.43
2018-02-18T00:44:40.595Z,26.13
2018-02-18T00:47:08.919Z,17.53
2018-02-18T00:49:37.392Z,33.23
2018-02-18T00:52:05.768Z,24.87
2018-02-18T00:54:34.269Z,26.43
2018-02-18T00:57:02.581Z,21.07
2018-02-18T00:59:30.895Z,24.10
2018-02-18T01:01:59.324Z,19.17
2018-02-18T01:04:27.644Z,29.87
2018-02-18T01:06:55.957Z,23.80
2018-02-18T01:09:24.273Z,23.87
2018-02-18T01:11:53.516Z,23.37
2018-02-18T01:14:21.847Z,19.67
2018-02-18T01:16:50.963Z,18.97
2018-02-18T01:19:19.398Z,29.60
2018-02-18T01:21:47.715Z,24.67
2018-02-18T01:24:17.027Z,30.17
2018-02-18T01:26:45.373Z,35.10
2018-02-18T01:29:14.600Z,29.53
2018-02-18T01:31:42.984Z,23.87
2018-02-18T01:34:12.103Z,28.33
2018-02-18T01:36:40.427Z,25.77
2018-02-18T01:39:08.751Z,22.73
2018-02-18T01:41:37.159Z,22.77
2018-02-18T01:44:05.518Z,20.00
2018-02-18T01:46:33.825Z,30.97
2018-02-18T01:49:02.137Z,22.47
2018-02-18T01:51:31.220Z,17.73
2018-02-18T01:53:59.611Z,27.67
2018-02-18T01:56:27.937Z,22.77
2018-02-18T01:58:57.012Z,24.57
2018-02-18T02:01:25.322Z,21.13
2018-02-18T02:03:54.390Z,20.50
2018-02-18T02:06:22.781Z,18.83
2018-02-18T02:08:51.090Z,19.93
2018-02-18T02:11:19.545Z,21.17
2018-02-18T02:13:47.885Z,21.30
2018-02-18T02:16:16.277Z,20.97
2018-02-18T02:18:44.680Z,21.10
2018-02-18T02:21:13.014Z,28.83
2018-02-18T02:23:42.127Z,22.80
2018-02-18T02:26:10.480Z,26.73
2018-02-18T02:28:39.565Z,21.60
2018-02-18T02:31:07.896Z,33.17
2018-02-18T02:33:36.258Z,26.43
2018-02-18T02:36:04.628Z,19.27
2018-02-18T02:38:32.943Z,39.00
2018-02-18T02:41:02.118Z,26.57
2018-02-18T02:43:30.466Z,35.50
2018-02-18T02:45:58.776Z,21.17
2018-02-18T02:48:27.129Z,24.20
2018-02-18T02:50:56.207Z,21.70
2018-02-18T02:53:24.546Z,23.03
2018-02-18T02:55:52.859Z,19.10
2018-02-18T02:58:21.170Z,25.80
2018-02-18T03:00:49.599Z,27.17
2018-02-18T03:03:18.766Z,26.47
2018-02-18T03:05:47.129Z,28.93
2018-02-18T03:08:15.484Z,21.67
2018-02-18T03:10:44.158Z,27.20
2018-02-18T03:13:12.532Z,24.00
2018-02-18T03:15:40.986Z,15.53
2018-02-18T03:18:10.105Z,22.37
2018-02-18T03:20:38.520Z,18.03
2018-02-18T03:23:06.837Z,22.70
2018-02-18T03:25:35.163Z,19.43
2018-02-18T03:28:04.415Z,14.50
2018-02-18T03:30:32.767Z,26.83
2018-02-18T03:33:01.855Z,26.00
2018-02-18T03:35:30.162Z,16.13
2018-02-18T03:37:59.244Z,28.00
2018-02-18T03:40:27.632Z,17.03
2018-02-18T03:42:56.036Z,15.30
2018-02-18T03:45:24.346Z,10.37
2018-02-18T03:47:53.427Z,23.43
2018-02-18T03:50:21.747Z,20.30
2018-02-18T03:52:50.891Z,17.30
2018-02-18T03:55:19.246Z,13.23
2018-02-18T03:57:47.593Z,15.00
2018-02-18T04:00:35.558Z,16.60
2018-02-18T04:03:03.863Z,19.90
2018-02-18T04:05:32.172Z,17.43
2018-02-18T04:08:01.349Z,13.93
2018-02-18T04:10:29.685Z,19.60
2018-02-18T04:12:58.764Z,16.70
2018-02-18T04:15:27.230Z,17.70
2018-02-18T04:17:55.542Z,14.20
2018-02-18T04:20:23.969Z,16.37
2018-02-18T04:22:53.049Z,18.63
2018-02-18T04:25:21.734Z,17.83
2018-02-18T04:27:50.064Z,15.10
2018-02-18T04:30:19.166Z,25.93
2018-02-18T04:32:47.534Z,21.73
2018-02-18T04:35:15.908Z,17.30
2018-02-18T04:37:45.042Z,15.23
2018-02-18T04:40:14.201Z,14.23
2018-02-18T04:42:42.624Z,19.40
2018-02-18T04:45:11.072Z,17.73
2018-02-18T04:47:39.485Z,18.30
2018-02-18T04:50:07.814Z,18.73
2018-02-18T04:52:36.222Z,24.23
2018-02-18T04:55:04.536Z,23.93
2018-02-18T04:57:33.616Z,18.43
2018-02-18T05:00:02.647Z,16.70
2018-02-18T05:02:31.714Z,15.00
2018-02-18T05:05:00.217Z,20.33
2018-02-18T05:07:28.538Z,16.70
2018-02-18T05:09:57.605Z,16.07
2018-02-18T05:12:26.031Z,22.40
2018-02-18T05:14:54.349Z,15.63
2018-02-18T05:17:22.659Z,18.77
2018-02-18T05:19:51.062Z,15.97
2018-02-18T05:22:19.467Z,22.80
2018-02-18T05:24:47.916Z,20.43
2018-02-18T05:27:17.062Z,22.40
2018-02-18T05:29:45.437Z,18.00
2018-02-18T05:32:13.951Z,18.27
2018-02-18T05:34:42.429Z,26.10
2018-02-18T05:37:10.739Z,17.50
2018-02-18T05:39:39.062Z,28.57
2018-02-18T05:42:08.140Z,24.77
2018-02-18T05:44:36.566Z,24.83
2018-02-18T05:47:05.671Z,30.53
2018-02-18T05:49:34.947Z,17.50
2018-02-18T05:52:03.246Z,20.10
2018-02-18T05:54:31.586Z,21.33
2018-02-18T05:56:59.902Z,23.77
2018-02-18T05:59:28.274Z,21.50
2018-02-18T06:01:56.593Z,23.60
2018-02-18T06:04:25.024Z,31.63
2018-02-18T06:06:53.339Z,23.33
2018-02-18T06:09:21.730Z,34.30
2018-02-18T06:11:50.808Z,19.73
2018-02-18T06:14:19.245Z,17.67
2018-02-18T06:16:47.577Z,22.50
2018-02-18T06:19:15.922Z,22.83
2018-02-18T06:21:44.252Z,16.50
2018-02-18T06:24:12.575Z,22.50
2018-02-18T06:26:41.764Z,31.67
2018-02-18T06:29:10.109Z,20.47
2018-02-18T06:31:38.498Z,22.03
2018-02-18T06:34:06.838Z,24.80
2018-02-18T06:36:35.241Z,23.40
2018-02-18T06:39:03.916Z,18.27
2018-02-18T06:41:32.275Z,23.73
2018-02-18T06:44:00.632Z,22.47
2018-02-18T06:46:29.727Z,35.27
2018-02-18T06:48:58.154Z,24.03
2018-02-18T06:51:27.275Z,26.10
2018-02-18T06:53:55.612Z,33.80
2018-02-18T06:56:23.982Z,32.40
2018-02-18T06:58:52.409Z,28.07
2018-02-18T07:01:20.766Z,26.90
2018-02-18T07:03:49.138Z,36.63
2018-02-18T07:06:17.492Z,34.17
2018-02-18T07:08:45.915Z,41.33
2018-02-18T07:11:14.359Z,34.53
2018-02-18T07:13:42.681Z,43.00
2018-02-18T07:16:11.783Z,40.33
2018-02-18T07:18:40.120Z,39.80
2018-02-18T07:21:08.514Z,31.43
2018-02-18T07:23:36.854Z,45.80
2018-02-18T07:26:05.966Z,38.03
2018-02-18T07:28:35.203Z,46.73
2018-02-18T07:31:03.604Z,43.33
2018-02-18T07:33:32.002Z,49.00
2018-02-18T07:36:00.340Z,38.73
2018-02-18T07:38:28.665Z,47.07
2018-02-18T07:40:56.971Z,35.77
2018-02-18T07:43:25.282Z,50.80
2018-02-18T07:45:53.669Z,51.30
2018-02-18T07:48:22.009Z,40.43
2018-02-18T07:50:51.176Z,36.37
2018-02-18T07:53:19.522Z,34.30
2018-02-18T07:55:47.855Z,37.77
2018-02-18T07:58:16.210Z,42.33
2018-02-18T08:00:44.550Z,39.90
2018-02-18T08:03:12.935Z,48.67
2018-02-18T08:05:41.267Z,42.60
2018-02-18T08:08:10.539Z,36.43
2018-02-18T08:10:38.859Z,45.73
2018-02-18T08:13:07.291Z,40.27
2018-02-18T08:15:35.638Z,30.20
2018-02-18T08:18:03.973Z,45.03
2018-02-18T08:20:32.390Z,35.87
2018-02-18T08:23:00.722Z,36.73
2018-02-18T08:25:29.111Z,42.03
2018-02-18T08:27:57.466Z,46.00
2018-02-18T08:30:25.813Z,33.67
2018-02-18T08:32:54.982Z,46.17
2018-02-18T08:35:23.319Z,20.73
2018-02-18T08:37:51.679Z,32.63
2018-02-18T08:40:20.054Z,24.77
2018-02-18T08:42:48.402Z,30.23
2018-02-18T08:45:16.823Z,39.97
2018-02-18T08:47:45.821Z,32.43
2018-02-18T08:50:15.235Z,30.03
2018-02-18T08:52:43.617Z,32.43
2018-02-18T08:55:12.003Z,37.43
2018-02-18T08:57:40.416Z,25.47
2018-02-18T09:00:08.750Z,31.73
2018-02-18T09:02:37.094Z,31.17
2018-02-18T09:05:05.441Z,28.03
2018-02-18T09:07:34.566Z,32.30
2018-02-18T09:10:03.161Z,24.03
2018-02-18T09:12:32.280Z,31.03
2018-02-18T09:15:00.623Z,30.10
2018-02-18T09:17:28.969Z,33.30
2018-02-18T09:19:57.323Z,26.17
2018-02-18T09:22:26.510Z,23.63
2018-02-18T09:24:56.106Z,26.17
2018-02-18T09:27:24.465Z,26.50
2018-02-18T09:29:53.588Z,26.03
2018-02-18T09:32:21.928Z,27.83
2018-02-18T09:34:50.506Z,29.57
2018-02-18T09:37:18.872Z,23.27
2018-02-18T09:39:47.316Z,22.57
2018-02-18T09:42:15.677Z,31.57
2018-02-18T09:44:44.107Z,24.43
2018-02-18T09:47:12.966Z,19.20
2018-02-18T09:49:41.411Z,23.47
2018-02-18T09:52:09.766Z,22.10
2018-02-18T09:54:38.119Z,23.43
2018-02-18T09:57:06.617Z,33.53
2018-02-18T09:59:34.970Z,25.70
2018-02-18T10:02:03.330Z,36.90
2018-02-18T10:04:31.748Z,29.00
2018-02-18T10:07:00.084Z,18.20
2018-02-18T10:09:28.426Z,18.83
2018-02-18T10:11:56.851Z,32.67
2018-02-18T10:14:27.457Z,31.20
2018-02-18T10:16:57.816Z,23.23
2018-02-18T10:19:27.144Z,20.93
2018-02-18T10:21:55.525Z,17.07
2018-02-18T10:24:23.886Z,23.57
2018-02-18T10:26:52.336Z,25.97
2018-02-18T10:29:20.784Z,17.37
2018-02-18T10:31:49.153Z,19.87
2018-02-18T10:34:17.606Z,27.13
2018-02-18T10:36:46.638Z,23.60
2018-02-18T10:39:15.510Z,21.70
2018-02-18T10:41:43.973Z,20.20
2018-02-18T10:44:12.305Z,19.77
2018-02-18T10:46:40.646Z,24.57
2018-02-18T10:49:09.186Z,21.37
2018-02-18T10:51:38.262Z,19.97
2018-02-18T10:54:06.672Z,19.23
2018-02-18T10:56:35.015Z,17.57
2018-02-18T10:59:03.339Z,24.30
2018-02-18T11:01:31.699Z,20.07
2018-02-18T11:04:01.384Z,24.97
2018-02-18T11:06:30.892Z,26.57
2018-02-18T11:08:59.734Z,16.50
2018-02-18T11:11:28.254Z,19.17
2018-02-18T11:13:56.551Z,16.60
2018-02-18T11:16:24.882Z,21.13
2018-02-18T11:18:54.163Z,20.50
2018-02-18T11:21:22.466Z,20.13
2018-02-18T11:23:50.782Z,23.13
2018-02-18T11:26:19.117Z,22.83
2018-02-18T11:28:47.575Z,15.07
2018-02-18T11:31:15.927Z,23.70
2018-02-18T11:33:44.276Z,21.10
2018-02-18T11:36:12.608Z,17.80
2018-02-18T11:38:40.920Z,14.70
2018-02-18T11:41:10.148Z,18.83
2018-02-18T11:43:38.497Z,17.23
2018-02-18T11:46:06.920Z,14.27
2018-02-18T11:48:35.991Z,18.33
2018-02-18T11:51:04.345Z,17.07
2018-02-18T11:53:33.494Z,21.90
2018-02-18T11:56:01.815Z,18.20
2018-02-18T11:58:30.916Z,14.10
2018-02-18T12:01:00.018Z,13.70
2018-02-18T12:03:28.331Z,19.13
2018-02-18T12:05:57.507Z,23.00
2018-02-18T12:08:25.927Z,16.03
2018-02-18T12:10:55.035Z,19.40
2018-02-18T12:13:24.182Z,18.03
2018-02-18T12:15:52.501Z,16.43
2018-02-18T12:18:20.925Z,14.30
2018-02-18T12:20:49.327Z,20.87
2018-02-18T12:23:18.472Z,16.77
2018-02-18T12:25:46.803Z,17.93
2018-02-18T12:28:15.948Z,15.50
2018-02-18T12:30:45.141Z,15.80
2018-02-18T12:33:14.242Z,10.80
2018-02-18T12:35:43.420Z,18.30
2018-02-18T12:38:11.776Z,20.57
2018-02-18T12:40:40.198Z,16.30
2018-02-18T12:43:08.596Z,12.53
2018-02-18T12:45:37.049Z,14.57
2018-02-18T12:48:05.389Z,19.17
2018-02-18T12:50:33.710Z,16.23
2018-02-18T12:53:02.816Z,14.80
2018-02-18T12:55:32.084Z,18.70
2018-02-18T12:58:00.410Z,18.43
2018-02-18T13:00:28.761Z,17.57
2018-02-18T13:02:57.120Z,16.17
2018-02-18T13:05:25.447Z,15.33
2018-02-18T13:07:53.814Z,20.47
2018-02-18T13:10:22.181Z,15.27
2018-02-18T13:12:51.290Z,17.13
2018-02-18T13:15:20.405Z,13.97
2018-02-18T13:17:49.638Z,14.60
2018-02-18T13:20:18.048Z,17.37
2018-02-18T13:22:46.407Z,18.90
2018-02-18T13:25:14.900Z,14.80
2018-02-18T13:27:43.249Z,16.98
2018-02-18T13:30:11.656Z,14.63
2018-02-18T13:32:39.985Z,10.53
2018-02-18T13:35:08.324Z,20.43
2018-02-18T13:37:36.661Z,23.27
2018-02-18T13:40:04.993Z,13.60
2018-02-18T13:42:33.500Z,16.67
2018-02-18T13:45:01.856Z,15.27
2018-02-18T13:47:30.190Z,17.43
2018-02-18T13:49:58.521Z,16.40
2018-02-18T13:52:26.856Z,14.25
2018-02-18T13:54:55.570Z,12.80
2018-02-18T13:57:23.902Z,16.00
2018-02-18T13:59:52.320Z,12.63
2018-02-18T14:02:20.669Z,20.42
2018-02-18T14:04:49.047Z,15.33
2018-02-18T14:07:17.418Z,13.33
2018-02-18T14:09:45.743Z,11.20
2018-02-18T14:12:14.874Z,12.93
2018-02-18T14:14:43.203Z,13.60
2018-02-18T14:17:11.532Z,16.13
2018-02-18T14:19:40.700Z,14.80
2018-02-18T14:22:09.047Z,20.73
2018-02-18T14:24:37.395Z,21.47
2018-02-18T14:27:06.675Z,17.37
2018-02-18T14:29:35.010Z,10.73
2018-02-18T14:32:03.387Z,12.57
2018-02-18T14:34:31.721Z,17.50
2018-02-18T14:37:00.838Z,13.70
2018-02-18T14:39:29.936Z,11.10
2018-02-18T14:42:10.663Z,15.40
2018-02-18T14:44:50.807Z,21.37
2018-02-18T14:47:31.621Z,15.93
2018-02-18T14:50:11.811Z,14.93
2018-02-18T14:52:53.536Z,12.63
2018-02-18T14:58:23.601Z,12.93
2018-02-18T15:00:51.941Z,14.53
2018-02-18T15:03:20.296Z,16.03
2018-02-18T15:05:49.459Z,15.50
2018-02-18T15:08:17.876Z,12.20
2018-02-18T15:10:47.218Z,12.95
2018-02-18T15:13:16.348Z,12.20
2018-02-18T15:15:44.725Z,18.10
2018-02-18T15:18:13.082Z,16.07
2018-02-18T15:20:41.435Z,10.03
2018-02-18T15:23:10.143Z,19.40
2018-02-18T15:25:38.511Z,16.40
2018-02-18T15:28:06.853Z,17.27
2018-02-18T15:30:35.188Z,23.10
2018-02-18T15:33:03.520Z,15.70
2018-02-18T15:35:31.998Z,20.90
2018-02-18T15:38:00.331Z,14.90
2018-02-18T15:40:28.720Z,14.73
2018-02-18T15:42:57.098Z,13.73
2018-02-18T15:45:25.430Z,15.73
2018-02-18T15:47:53.782Z,20.10
2018-02-18T15:50:22.911Z,13.17
2018-02-18T15:52:52.051Z,16.50
2018-02-18T15:55:20.370Z,15.37
2018-02-18T15:57:48.781Z,15.70
2018-02-18T16:00:17.917Z,15.13
2018-02-18T16:02:47.038Z,16.67
2018-02-18T16:05:16.198Z,16.90
2018-02-18T16:07:44.832Z,28.73
2018-02-18T16:10:14.428Z,21.37
2018-02-18T16:12:42.822Z,15.40
2018-02-18T16:15:12.020Z,18.80
2018-02-18T16:17:40.434Z,22.60
2018-02-18T16:20:08.845Z,14.83
2018-02-18T16:22:38.034Z,20.23
2018-02-18T16:25:06.380Z,18.20
2018-02-18T16:27:34.710Z,13.70
2018-02-18T16:30:03.063Z,17.37
2018-02-18T16:32:32.226Z,15.67
2018-02-18T16:35:00.637Z,12.87
2018-02-18T16:37:29.765Z,18.70
2018-02-18T16:39:58.115Z,20.83
2018-02-18T16:42:26.478Z,14.80
2018-02-18T16:44:54.907Z,15.73
2018-02-18T16:47:24.102Z,16.87
2018-02-18T16:49:52.551Z,16.03
2018-02-18T16:52:20.995Z,16.40
2018-02-18T16:54:49.729Z,14.53
2018-02-18T16:57:18.946Z,13.13
2018-02-18T16:59:47.484Z,18.23
2018-02-18T17:02:15.934Z,21.87
2018-02-18T17:04:44.298Z,16.07
2018-02-18T17:07:13.459Z,24.60
2018-02-18T17:09:41.924Z,18.67
2018-02-18T17:12:10.411Z,15.50
2018-02-18T17:14:39.528Z,29.63
2018-02-18T17:17:07.941Z,15.43
2018-02-18T17:19:37.043Z,17.47
2018-02-18T17:22:05.348Z,24.63
2018-02-18T17:24:33.685Z,19.37
2018-02-18T17:27:02.040Z,18.63
2018-02-18T17:29:30.391Z,19.57
2018-02-18T17:31:58.792Z,24.63
2018-02-18T17:34:27.193Z,26.37
2018-02-18T17:36:55.624Z,24.40
2018-02-18T17:39:24.028Z,21.47
2018-02-18T17:41:52.357Z,16.87
2018-02-18T17:44:20.711Z,19.70
2018-02-18T17:46:49.268Z,13.27
2018-02-18T17:49:17.660Z,21.73
2018-02-18T17:51:46.054Z,20.40
2018-02-18T17:54:14.392Z,28.03
2018-02-18T17:56:43.610Z,24.43
2018-02-18T17:59:12.050Z,20.60
2018-02-18T18:01:40.417Z,23.73
2018-02-18T18:04:08.783Z,18.20
2018-02-18T18:06:37.955Z,21.67
2018-02-18T18:09:06.369Z,19.77
2018-02-18T18:11:34.742Z,22.13
2018-02-18T18:14:03.069Z,26.07
2018-02-18T18:16:32.284Z,36.93
2018-02-18T18:19:01.409Z,30.03
2018-02-18T18:21:29.795Z,22.90
2018-02-18T18:23:59.017Z,30.33
2018-02-18T18:26:27.362Z,28.10
2018-02-18T18:28:55.792Z,29.90
2018-02-18T18:31:24.885Z,17.33
2018-02-18T18:33:53.990Z,20.00
2018-02-18T18:36:22.339Z,19.87
2018-02-18T18:38:50.742Z,26.23
2018-02-18T18:41:19.236Z,19.73
2018-02-18T18:43:47.699Z,19.60
2018-02-18T18:46:16.198Z,22.30
2018-02-18T18:48:44.606Z,19.10
2018-02-18T18:51:13.712Z,22.87
2018-02-18T18:53:42.220Z,32.27
2018-02-18T18:56:10.616Z,26.07
2018-02-18T18:58:39.033Z,24.33
2018-02-18T19:03:42.187Z,31.70
2018-02-18T19:06:10.576Z,19.03
2018-02-18T19:08:39.685Z,18.47
2018-02-18T19:11:08.804Z,16.07
2018-02-18T19:13:37.927Z,22.30
2018-02-18T19:16:06.328Z,23.87
2018-02-18T19:18:34.678Z,33.47
2018-02-18T19:21:03.791Z,17.40
2018-02-18T19:23:32.901Z,24.27
2018-02-18T19:26:02.013Z,19.50
2018-02-18T19:28:31.186Z,23.93
2018-02-18T19:30:59.555Z,27.90
2018-02-18T19:33:27.909Z,20.10
2018-02-18T19:35:57.013Z,23.67
2018-02-18T19:38:26.143Z,22.03
2018-02-18T19:40:54.531Z,23.40
2018-02-18T19:43:22.935Z,27.10
2018-02-18T19:45:51.347Z,24.73
2018-02-18T19:48:19.745Z,21.80
2018-02-18T19:50:48.216Z,24.03
2018-02-18T19:53:17.004Z,27.30
2018-02-18T19:55:45.386Z,23.90
2018-02-18T19:58:14.555Z,17.30
2018-02-18T20:00:43.383Z,18.73
2018-02-18T20:03:11.797Z,21.47
2018-02-18T20:05:40.204Z,22.27
2018-02-18T20:08:09.382Z,20.73
2018-02-18T20:10:38.498Z,17.10
2018-02-18T20:13:07.614Z,20.70
2018-02-18T20:15:36.710Z,16.70
2018-02-18T20:18:05.975Z,25.73
2018-02-18T20:20:34.406Z,21.63
2018-02-18T20:23:03.064Z,22.03
2018-02-18T20:25:31.486Z,20.83
2018-02-18T20:27:59.844Z,22.20
2018-02-18T20:30:28.200Z,28.40
2018-02-18T20:32:57.334Z,20.83
2018-02-18T20:35:25.741Z,21.80
2018-02-18T20:37:55.091Z,11.10
2018-02-18T20:40:23.435Z,20.10
2018-02-18T20:42:51.805Z,23.67
2018-02-18T20:45:20.911Z,15.83
2018-02-18T20:47:50.096Z,13.20
2018-02-18T20:50:18.456Z,16.03
2018-02-18T20:52:46.828Z,13.17
2018-02-18T20:55:15.326Z,16.17
2018-02-18T20:57:43.788Z,20.50
2018-02-18T21:00:13.921Z,18.07
2018-02-18T21:02:43.393Z,14.77
2018-02-18T21:05:11.849Z,34.77
2018-02-18T21:07:40.191Z,20.70
2018-02-18T21:10:09.333Z,17.37
2018-02-18T21:12:38.429Z,19.93
2018-02-18T21:15:06.849Z,22.97
2018-02-18T21:17:35.251Z,18.20
2018-02-18T21:20:03.817Z,23.23
2018-02-18T21:22:32.938Z,20.83
2018-02-18T21:25:02.031Z,24.03
2018-02-18T21:27:30.375Z,22.90
2018-02-18T21:29:59.936Z,26.13
2018-02-18T21:32:28.294Z,23.73
2018-02-18T21:34:56.693Z,27.40
2018-02-18T21:37:25.067Z,25.87
2018-02-18T21:39:53.410Z,31.00
2018-02-18T21:42:22.545Z,28.53
2018-02-18T21:44:50.975Z,25.87
2018-02-18T21:47:19.804Z,28.03
2018-02-18T21:49:48.368Z,30.53
2018-02-18T21:52:18.084Z,25.53
2018-02-18T21:54:47.128Z,31.13
2018-02-18T21:57:15.711Z,20.93
2018-02-18T21:59:44.384Z,38.00
2018-02-18T22:02:13.298Z,25.53
2018-02-18T22:04:42.731Z,27.43
2018-02-18T22:07:11.165Z,30.63
2018-02-18T22:09:39.550Z,27.40
2018-02-18T22:12:08.713Z,26.10
2018-02-18T22:14:37.062Z,22.33
2018-02-18T22:17:05.424Z,27.67
2018-02-18T22:19:33.771Z,25.40
2018-02-18T22:22:02.123Z,22.50
2018-02-18T22:24:31.337Z,25.53
2018-02-18T22:27:00.437Z,26.63
2018-02-18T22:29:28.798Z,32.10
2018-02-18T22:31:57.147Z,29.37
2018-02-18T22:34:25.496Z,27.50
2018-02-18T22:36:53.873Z,29.43
2018-02-18T22:39:22.234Z,24.87
2018-02-18T22:41:50.665Z,28.57
2018-02-18T22:44:19.014Z,30.70
2018-02-18T22:46:47.423Z,24.80
2018-02-18T22:49:16.147Z,24.83
2018-02-18T22:51:44.616Z,29.47
2018-02-18T22:54:13.068Z,26.83
2018-02-18T22:56:41.453Z,24.80
2018-02-18T22:59:10.904Z,24.90
2018-02-18T23:01:39.259Z,22.63
2018-02-18T23:04:08.372Z,30.00
2018-02-18T23:06:37.513Z,19.80
2018-02-18T23:09:05.855Z,27.13
2018-02-18T23:11:34.274Z,30.77
2018-02-18T23:14:03.408Z,23.20
2018-02-18T23:16:31.742Z,24.87
2018-02-18T23:19:00.127Z,20.80
2018-02-18T23:21:28.476Z,23.07
2018-02-18T23:23:56.965Z,23.93
2018-02-18T23:26:25.302Z,21.47
2018-02-18T23:28:53.661Z,26.53
2018-02-18T23:31:21.989Z,20.90
2018-02-18T23:33:50.443Z,20.97
2018-02-18T23:36:18.820Z,17.67
2018-02-18T23:38:47.191Z,21.17
2018-02-18T23:41:15.685Z,18.10
2018-02-18T23:43:44.111Z,23.97
2018-02-18T23:46:12.581Z,16.87
2018-02-18T23:48:41.732Z,20.07
2018-02-18T23:51:10.081Z,20.40
2018-02-18T23:53:39.198Z,22.70
2018-02-18T23:56:08.374Z,15.70
2018-02-18T23:58:36.716Z,17.07
